sensor_id;sensor_type;location;lat;lon;timestamp;P1;durP1;ratioP1;P2;durP2;ratioP2
9974;SDS011;5028;50.974;4.968;2023-04-25T00:01:41;11.77;;;4.30;;
9974;SDS011;5028;50.974;4.968;2023-04-25T00:04:10;12.67;;;4.63;;
9974;SDS011;5028;50.974;4.968;2023-04-25T00:06:39;11.63;;;4.20;;
9974;SDS011;5028;50.974;4.968;2023-04-25T00:09:08;12.30;;;4.50;;
9974;SDS011;5028;50.974;4.968;2023-04-25T00:11:37;12.30;;;4.70;;
9974;SDS011;5028;50.974;4.968;2023-04-25T00:14:06;13.03;;;3.93;;
9974;SDS011;5028;50.974;4.968;2023-04-25T00:16:36;8.43;;;4.17;;
9974;SDS011;5028;50.974;4.968;2023-04-25T00:19:05;12.40;;;4.30;;
9974;SDS011;5028;50.974;4.968;2023-04-25T00:21:34;12.50;;;4.50;;
9974;SDS011;5028;50.974;4.968;2023-04-25T00:24:04;12.93;;;4.33;;
9974;SDS011;5028;50.974;4.968;2023-04-25T00:26:33;12.67;;;4.47;;
9974;SDS011;5028;50.974;4.968;2023-04-25T00:29:02;13.57;;;4.70;;
9974;SDS011;5028;50.974;4.968;2023-04-25T00:31:31;13.83;;;4.40;;
9974;SDS011;5028;50.974;4.968;2023-04-25T00:34:02;15.53;;;4.43;;
9974;SDS011;5028;50.974;4.968;2023-04-25T00:36:30;12.17;;;4.90;;
9974;SDS011;5028;50.974;4.968;2023-04-25T00:38:59;11.70;;;4.80;;
9974;SDS011;5028;50.974;4.968;2023-04-25T00:41:29;12.60;;;4.90;;
9974;SDS011;5028;50.974;4.968;2023-04-25T00:43:59;10.03;;;4.67;;
9974;SDS011;5028;50.974;4.968;2023-04-25T00:46:29;13.80;;;4.23;;
9974;SDS011;5028;50.974;4.968;2023-04-25T00:48:58;14.30;;;4.57;;
9974;SDS011;5028;50.974;4.968;2023-04-25T00:51:29;17.67;;;4.10;;
9974;SDS011;5028;50.974;4.968;2023-04-25T00:54:00;11.47;;;4.00;;
9974;SDS011;5028;50.974;4.968;2023-04-25T00:56:29;12.13;;;3.97;;
9974;SDS011;5028;50.974;4.968;2023-04-25T00:58:58;11.17;;;4.17;;
9974;SDS011;5028;50.974;4.968;2023-04-25T01:01:27;11.67;;;4.57;;
9974;SDS011;5028;50.974;4.968;2023-04-25T01:03:55;9.37;;;4.00;;
9974;SDS011;5028;50.974;4.968;2023-04-25T01:06:26;14.77;;;4.07;;
9974;SDS011;5028;50.974;4.968;2023-04-25T01:08:57;12.13;;;4.00;;
9974;SDS011;5028;50.974;4.968;2023-04-25T01:11:26;10.83;;;4.27;;
9974;SDS011;5028;50.974;4.968;2023-04-25T01:13:55;11.20;;;4.80;;
9974;SDS011;5028;50.974;4.968;2023-04-25T01:16:25;11.87;;;4.90;;
9974;SDS011;5028;50.974;4.968;2023-04-25T01:18:54;9.57;;;3.90;;
9974;SDS011;5028;50.974;4.968;2023-04-25T01:21:25;13.93;;;4.43;;
9974;SDS011;5028;50.974;4.968;2023-04-25T01:23:56;14.93;;;5.03;;
9974;SDS011;5028;50.974;4.968;2023-04-25T01:26:25;12.07;;;4.83;;
9974;SDS011;5028;50.974;4.968;2023-04-25T01:28:54;13.47;;;4.30;;
9974;SDS011;5028;50.974;4.968;2023-04-25T01:31:22;12.63;;;4.33;;
9974;SDS011;5028;50.974;4.968;2023-04-25T01:33:51;10.17;;;4.07;;
9974;SDS011;5028;50.974;4.968;2023-04-25T01:36:20;13.27;;;4.37;;
9974;SDS011;5028;50.974;4.968;2023-04-25T01:38:51;10.17;;;3.93;;
9974;SDS011;5028;50.974;4.968;2023-04-25T01:41:20;11.20;;;3.97;;
9974;SDS011;5028;50.974;4.968;2023-04-25T01:43:49;12.07;;;4.17;;
9974;SDS011;5028;50.974;4.968;2023-04-25T01:46:18;11.90;;;4.23;;
9974;SDS011;5028;50.974;4.968;2023-04-25T01:48:47;11.90;;;4.30;;
9974;SDS011;5028;50.974;4.968;2023-04-25T01:51:16;12.03;;;3.97;;
9974;SDS011;5028;50.974;4.968;2023-04-25T01:53:45;11.03;;;3.83;;
9974;SDS011;5028;50.974;4.968;2023-04-25T01:56:16;11.70;;;4.20;;
9974;SDS011;5028;50.974;4.968;2023-04-25T01:58:46;11.60;;;4.40;;
9974;SDS011;5028;50.974;4.968;2023-04-25T02:01:15;14.47;;;4.47;;
9974;SDS011;5028;50.974;4.968;2023-04-25T02:03:44;13.07;;;4.47;;
9974;SDS011;5028;50.974;4.968;2023-04-25T02:06:13;13.60;;;4.20;;
9974;SDS011;5028;50.974;4.968;2023-04-25T02:08:41;14.70;;;4.10;;
9974;SDS011;5028;50.974;4.968;2023-04-25T02:11:10;14.77;;;4.37;;
9974;SDS011;5028;50.974;4.968;2023-04-25T02:13:40;10.17;;;3.93;;
9974;SDS011;5028;50.974;4.968;2023-04-25T02:16:09;14.63;;;4.20;;
9974;SDS011;5028;50.974;4.968;2023-04-25T02:18:38;10.93;;;4.27;;
9974;SDS011;5028;50.974;4.968;2023-04-25T02:21:07;12.07;;;5.03;;
9974;SDS011;5028;50.974;4.968;2023-04-25T02:23:36;11.03;;;4.07;;
9974;SDS011;5028;50.974;4.968;2023-04-25T02:26:04;13.97;;;4.40;;
9974;SDS011;5028;50.974;4.968;2023-04-25T02:28:33;16.73;;;4.30;;
9974;SDS011;5028;50.974;4.968;2023-04-25T02:31:03;13.43;;;4.37;;
9974;SDS011;5028;50.974;4.968;2023-04-25T02:33:32;12.80;;;4.33;;
9974;SDS011;5028;50.974;4.968;2023-04-25T02:36:00;12.67;;;4.87;;
9974;SDS011;5028;50.974;4.968;2023-04-25T02:38:29;17.47;;;4.67;;
9974;SDS011;5028;50.974;4.968;2023-04-25T02:40:58;11.27;;;4.63;;
9974;SDS011;5028;50.974;4.968;2023-04-25T02:43:26;13.33;;;4.87;;
9974;SDS011;5028;50.974;4.968;2023-04-25T02:45:56;15.73;;;4.73;;
9974;SDS011;5028;50.974;4.968;2023-04-25T02:48:26;11.30;;;4.80;;
9974;SDS011;5028;50.974;4.968;2023-04-25T02:50:55;13.17;;;4.63;;
9974;SDS011;5028;50.974;4.968;2023-04-25T02:53:24;11.87;;;4.60;;
9974;SDS011;5028;50.974;4.968;2023-04-25T02:55:52;13.50;;;4.87;;
9974;SDS011;5028;50.974;4.968;2023-04-25T02:58:21;12.77;;;4.40;;
9974;SDS011;5028;50.974;4.968;2023-04-25T03:00:49;13.97;;;5.43;;
9974;SDS011;5028;50.974;4.968;2023-04-25T03:03:18;12.33;;;4.37;;
9974;SDS011;5028;50.974;4.968;2023-04-25T03:05:50;11.60;;;4.47;;
9974;SDS011;5028;50.974;4.968;2023-04-25T03:08:19;14.60;;;5.07;;
9974;SDS011;5028;50.974;4.968;2023-04-25T03:10:48;12.03;;;5.23;;
9974;SDS011;5028;50.974;4.968;2023-04-25T03:13:18;14.00;;;5.57;;
9974;SDS011;5028;50.974;4.968;2023-04-25T03:15:47;13.47;;;4.70;;
9974;SDS011;5028;50.974;4.968;2023-04-25T03:18:15;17.37;;;5.27;;
9974;SDS011;5028;50.974;4.968;2023-04-25T03:20:44;12.60;;;4.57;;
9974;SDS011;5028;50.974;4.968;2023-04-25T03:23:14;14.40;;;4.77;;
9974;SDS011;5028;50.974;4.968;2023-04-25T03:25:43;11.33;;;5.17;;
9974;SDS011;5028;50.974;4.968;2023-04-25T03:28:12;10.43;;;4.53;;
9974;SDS011;5028;50.974;4.968;2023-04-25T03:30:41;12.70;;;5.10;;
9974;SDS011;5028;50.974;4.968;2023-04-25T03:33:10;13.70;;;4.90;;
9974;SDS011;5028;50.974;4.968;2023-04-25T03:35:38;17.07;;;4.80;;
9974;SDS011;5028;50.974;4.968;2023-04-25T03:38:09;11.80;;;4.77;;
9974;SDS011;5028;50.974;4.968;2023-04-25T03:40:38;13.00;;;4.87;;
9974;SDS011;5028;50.974;4.968;2023-04-25T03:43:07;15.77;;;4.80;;
9974;SDS011;5028;50.974;4.968;2023-04-25T03:45:35;9.70;;;3.90;;
9974;SDS011;5028;50.974;4.968;2023-04-25T03:48:04;16.17;;;4.83;;
9974;SDS011;5028;50.974;4.968;2023-04-25T03:50:33;14.53;;;5.67;;
9974;SDS011;5028;50.974;4.968;2023-04-25T03:53:02;18.73;;;5.63;;
9974;SDS011;5028;50.974;4.968;2023-04-25T03:55:30;14.07;;;4.80;;
9974;SDS011;5028;50.974;4.968;2023-04-25T03:58:00;14.87;;;5.77;;
9974;SDS011;5028;50.974;4.968;2023-04-25T04:00:29;12.50;;;5.27;;
9974;SDS011;5028;50.974;4.968;2023-04-25T04:02:58;13.47;;;4.87;;
9974;SDS011;5028;50.974;4.968;2023-04-25T04:05:27;15.97;;;5.60;;
9974;SDS011;5028;50.974;4.968;2023-04-25T04:07:56;11.87;;;5.57;;
9974;SDS011;5028;50.974;4.968;2023-04-25T04:10:25;13.20;;;5.63;;
9974;SDS011;5028;50.974;4.968;2023-04-25T04:12:54;12.07;;;5.50;;
9974;SDS011;5028;50.974;4.968;2023-04-25T04:15:24;16.27;;;5.37;;
9974;SDS011;5028;50.974;4.968;2023-04-25T04:17:54;14.57;;;5.73;;
9974;SDS011;5028;50.974;4.968;2023-04-25T04:20:23;15.53;;;5.43;;
9974;SDS011;5028;50.974;4.968;2023-04-25T04:22:51;15.77;;;5.83;;
9974;SDS011;5028;50.974;4.968;2023-04-25T04:25:20;19.77;;;6.33;;
9974;SDS011;5028;50.974;4.968;2023-04-25T04:27:48;14.23;;;5.50;;
9974;SDS011;5028;50.974;4.968;2023-04-25T04:30:18;13.47;;;5.20;;
9974;SDS011;5028;50.974;4.968;2023-04-25T04:32:49;12.83;;;5.10;;
9974;SDS011;5028;50.974;4.968;2023-04-25T04:35:18;12.73;;;5.80;;
9974;SDS011;5028;50.974;4.968;2023-04-25T04:37:46;13.07;;;5.30;;
9974;SDS011;5028;50.974;4.968;2023-04-25T04:40:15;16.50;;;6.00;;
9974;SDS011;5028;50.974;4.968;2023-04-25T04:42:45;17.63;;;5.47;;
9974;SDS011;5028;50.974;4.968;2023-04-25T04:45:14;13.40;;;6.10;;
9974;SDS011;5028;50.974;4.968;2023-04-25T04:47:43;15.60;;;5.90;;
9974;SDS011;5028;50.974;4.968;2023-04-25T04:50:14;12.00;;;5.53;;
9974;SDS011;5028;50.974;4.968;2023-04-25T04:52:42;11.53;;;5.13;;
9974;SDS011;5028;50.974;4.968;2023-04-25T04:55:11;11.77;;;5.50;;
9974;SDS011;5028;50.974;4.968;2023-04-25T04:57:40;15.67;;;6.10;;
9974;SDS011;5028;50.974;4.968;2023-04-25T05:00:09;16.07;;;5.83;;
9974;SDS011;5028;50.974;4.968;2023-04-25T05:02:39;17.77;;;5.80;;
9974;SDS011;5028;50.974;4.968;2023-04-25T05:05:08;14.93;;;5.27;;
9974;SDS011;5028;50.974;4.968;2023-04-25T05:07:38;15.57;;;6.00;;
9974;SDS011;5028;50.974;4.968;2023-04-25T05:10:08;14.10;;;5.93;;
9974;SDS011;5028;50.974;4.968;2023-04-25T05:12:37;16.07;;;5.50;;
9974;SDS011;5028;50.974;4.968;2023-04-25T05:15:05;13.13;;;5.87;;
9974;SDS011;5028;50.974;4.968;2023-04-25T05:17:35;17.30;;;6.30;;
9974;SDS011;5028;50.974;4.968;2023-04-25T05:20:05;16.60;;;5.30;;
9974;SDS011;5028;50.974;4.968;2023-04-25T05:22:36;14.77;;;5.63;;
9974;SDS011;5028;50.974;4.968;2023-04-25T05:25:08;15.90;;;6.17;;
9974;SDS011;5028;50.974;4.968;2023-04-25T05:27:37;15.70;;;5.77;;
9974;SDS011;5028;50.974;4.968;2023-04-25T05:30:06;16.07;;;5.40;;
9974;SDS011;5028;50.974;4.968;2023-04-25T05:32:36;16.17;;;5.90;;
9974;SDS011;5028;50.974;4.968;2023-04-25T05:35:05;14.90;;;5.73;;
9974;SDS011;5028;50.974;4.968;2023-04-25T05:37:35;14.43;;;5.43;;
9974;SDS011;5028;50.974;4.968;2023-04-25T05:40:07;16.47;;;6.20;;
9974;SDS011;5028;50.974;4.968;2023-04-25T05:42:36;13.67;;;6.00;;
9974;SDS011;5028;50.974;4.968;2023-04-25T05:45:06;17.77;;;6.07;;
9974;SDS011;5028;50.974;4.968;2023-04-25T05:47:35;13.80;;;6.10;;
9974;SDS011;5028;50.974;4.968;2023-04-25T05:50:04;17.47;;;6.30;;
9974;SDS011;5028;50.974;4.968;2023-04-25T05:52:35;16.27;;;6.50;;
9974;SDS011;5028;50.974;4.968;2023-04-25T05:55:04;13.13;;;6.60;;
9974;SDS011;5028;50.974;4.968;2023-04-25T05:57:35;17.00;;;6.20;;
9974;SDS011;5028;50.974;4.968;2023-04-25T06:00:03;13.07;;;5.93;;
9974;SDS011;5028;50.974;4.968;2023-04-25T06:02:35;14.83;;;6.03;;
9974;SDS011;5028;50.974;4.968;2023-04-25T06:05:04;13.87;;;5.97;;
9974;SDS011;5028;50.974;4.968;2023-04-25T06:07:34;17.63;;;6.67;;
9974;SDS011;5028;50.974;4.968;2023-04-25T06:10:03;13.80;;;5.80;;
9974;SDS011;5028;50.974;4.968;2023-04-25T06:12:34;14.57;;;5.37;;
9974;SDS011;5028;50.974;4.968;2023-04-25T06:15:03;16.20;;;5.60;;
9974;SDS011;5028;50.974;4.968;2023-04-25T06:17:52;16.00;;;5.73;;
9974;SDS011;5028;50.974;4.968;2023-04-25T06:20:20;15.97;;;5.03;;
9974;SDS011;5028;50.974;4.968;2023-04-25T06:22:51;13.27;;;5.23;;
9974;SDS011;5028;50.974;4.968;2023-04-25T06:25:20;14.07;;;5.33;;
9974;SDS011;5028;50.974;4.968;2023-04-25T06:27:50;12.90;;;5.40;;
9974;SDS011;5028;50.974;4.968;2023-04-25T06:30:19;12.23;;;4.97;;
9974;SDS011;5028;50.974;4.968;2023-04-25T06:32:50;16.13;;;5.80;;
9974;SDS011;5028;50.974;4.968;2023-04-25T06:35:19;15.60;;;5.90;;
9974;SDS011;5028;50.974;4.968;2023-04-25T06:37:48;13.43;;;5.07;;
9974;SDS011;5028;50.974;4.968;2023-04-25T06:40:16;11.67;;;4.90;;
9974;SDS011;5028;50.974;4.968;2023-04-25T06:42:45;12.70;;;4.67;;
9974;SDS011;5028;50.974;4.968;2023-04-25T06:45:16;16.80;;;4.80;;
9974;SDS011;5028;50.974;4.968;2023-04-25T06:47:45;10.23;;;4.43;;
9974;SDS011;5028;50.974;4.968;2023-04-25T06:50:13;13.93;;;5.50;;
9974;SDS011;5028;50.974;4.968;2023-04-25T06:52:42;14.27;;;4.97;;
9974;SDS011;5028;50.974;4.968;2023-04-25T06:55:11;11.80;;;4.70;;
9974;SDS011;5028;50.974;4.968;2023-04-25T06:57:39;11.93;;;4.90;;
9974;SDS011;5028;50.974;4.968;2023-04-25T07:00:08;13.17;;;5.17;;
9974;SDS011;5028;50.974;4.968;2023-04-25T07:02:38;10.33;;;4.57;;
9974;SDS011;5028;50.974;4.968;2023-04-25T07:05:09;11.40;;;4.93;;
9974;SDS011;5028;50.974;4.968;2023-04-25T07:07:37;11.97;;;5.03;;
9974;SDS011;5028;50.974;4.968;2023-04-25T07:10:06;14.07;;;4.07;;
9974;SDS011;5028;50.974;4.968;2023-04-25T07:12:34;12.20;;;4.30;;
9974;SDS011;5028;50.974;4.968;2023-04-25T07:15:03;13.30;;;4.53;;
9974;SDS011;5028;50.974;4.968;2023-04-25T07:17:34;10.47;;;4.20;;
9974;SDS011;5028;50.974;4.968;2023-04-25T07:20:05;11.83;;;4.30;;
9974;SDS011;5028;50.974;4.968;2023-04-25T07:22:35;10.67;;;3.77;;
9974;SDS011;5028;50.974;4.968;2023-04-25T07:25:04;15.73;;;4.83;;
9974;SDS011;5028;50.974;4.968;2023-04-25T07:27:35;11.40;;;3.83;;
9974;SDS011;5028;50.974;4.968;2023-04-25T07:30:03;8.23;;;3.00;;
9974;SDS011;5028;50.974;4.968;2023-04-25T07:32:33;11.83;;;3.60;;
9974;SDS011;5028;50.974;4.968;2023-04-25T07:35:02;8.93;;;3.37;;
9974;SDS011;5028;50.974;4.968;2023-04-25T07:37:32;7.90;;;3.30;;
9974;SDS011;5028;50.974;4.968;2023-04-25T07:40:01;12.47;;;3.73;;
9974;SDS011;5028;50.974;4.968;2023-04-25T07:42:32;10.13;;;3.43;;
9974;SDS011;5028;50.974;4.968;2023-04-25T07:45:00;9.50;;;2.93;;
9974;SDS011;5028;50.974;4.968;2023-04-25T07:47:29;12.70;;;3.73;;
9974;SDS011;5028;50.974;4.968;2023-04-25T07:49:57;9.67;;;3.57;;
9974;SDS011;5028;50.974;4.968;2023-04-25T07:52:27;10.30;;;3.63;;
9974;SDS011;5028;50.974;4.968;2023-04-25T07:54:57;9.03;;;3.77;;
9974;SDS011;5028;50.974;4.968;2023-04-25T07:57:26;9.27;;;3.80;;
9974;SDS011;5028;50.974;4.968;2023-04-25T07:59:55;10.23;;;4.10;;
9974;SDS011;5028;50.974;4.968;2023-04-25T08:02:24;10.77;;;3.63;;
9974;SDS011;5028;50.974;4.968;2023-04-25T08:04:55;8.43;;;2.63;;
9974;SDS011;5028;50.974;4.968;2023-04-25T08:07:23;10.27;;;3.20;;
9974;SDS011;5028;50.974;4.968;2023-04-25T08:09:53;9.83;;;3.73;;
9974;SDS011;5028;50.974;4.968;2023-04-25T08:12:24;13.03;;;4.03;;
9974;SDS011;5028;50.974;4.968;2023-04-25T08:14:52;8.83;;;3.13;;
9974;SDS011;5028;50.974;4.968;2023-04-25T08:17:21;12.30;;;3.70;;
9974;SDS011;5028;50.974;4.968;2023-04-25T08:19:50;11.90;;;4.30;;
9974;SDS011;5028;50.974;4.968;2023-04-25T08:22:19;10.50;;;4.10;;
9974;SDS011;5028;50.974;4.968;2023-04-25T08:24:47;12.00;;;4.23;;
9974;SDS011;5028;50.974;4.968;2023-04-25T08:27:16;12.50;;;4.43;;
9974;SDS011;5028;50.974;4.968;2023-04-25T08:29:48;16.13;;;4.63;;
9974;SDS011;5028;50.974;4.968;2023-04-25T08:32:18;12.13;;;5.90;;
9974;SDS011;5028;50.974;4.968;2023-04-25T08:34:47;8.90;;;3.70;;
9974;SDS011;5028;50.974;4.968;2023-04-25T08:37:17;11.97;;;4.00;;
9974;SDS011;5028;50.974;4.968;2023-04-25T08:39:47;8.40;;;3.67;;
9974;SDS011;5028;50.974;4.968;2023-04-25T08:42:18;9.30;;;3.60;;
9974;SDS011;5028;50.974;4.968;2023-04-25T08:44:50;10.37;;;4.00;;
9974;SDS011;5028;50.974;4.968;2023-04-25T08:47:22;8.57;;;4.10;;
9974;SDS011;5028;50.974;4.968;2023-04-25T08:49:51;10.30;;;4.30;;
9974;SDS011;5028;50.974;4.968;2023-04-25T08:52:22;9.83;;;4.03;;
9974;SDS011;5028;50.974;4.968;2023-04-25T08:54:51;13.40;;;4.00;;
9974;SDS011;5028;50.974;4.968;2023-04-25T08:57:22;13.07;;;3.93;;
9974;SDS011;5028;50.974;4.968;2023-04-25T08:59:53;13.63;;;3.80;;
9974;SDS011;5028;50.974;4.968;2023-04-25T09:02:23;10.43;;;3.70;;
9974;SDS011;5028;50.974;4.968;2023-04-25T09:04:53;9.10;;;3.10;;
9974;SDS011;5028;50.974;4.968;2023-04-25T09:07:23;6.43;;;3.30;;
9974;SDS011;5028;50.974;4.968;2023-04-25T09:09:52;11.53;;;3.23;;
9974;SDS011;5028;50.974;4.968;2023-04-25T09:12:21;7.63;;;2.80;;
9974;SDS011;5028;50.974;4.968;2023-04-25T09:15:02;9.27;;;3.33;;
9974;SDS011;5028;50.974;4.968;2023-04-25T09:17:34;7.13;;;3.10;;
9974;SDS011;5028;50.974;4.968;2023-04-25T09:20:07;7.67;;;2.80;;
9974;SDS011;5028;50.974;4.968;2023-04-25T09:22:37;9.37;;;3.27;;
9974;SDS011;5028;50.974;4.968;2023-04-25T09:25:08;9.60;;;2.70;;
9974;SDS011;5028;50.974;4.968;2023-04-25T09:27:49;5.63;;;1.70;;
9974;SDS011;5028;50.974;4.968;2023-04-25T09:30:27;11.97;;;4.40;;
9974;SDS011;5028;50.974;4.968;2023-04-25T09:32:59;7.03;;;2.60;;
9974;SDS011;5028;50.974;4.968;2023-04-25T09:35:36;6.73;;;2.30;;
9974;SDS011;5028;50.974;4.968;2023-04-25T09:38:10;8.30;;;2.80;;
9974;SDS011;5028;50.974;4.968;2023-04-25T09:40:40;5.03;;;2.47;;
9974;SDS011;5028;50.974;4.968;2023-04-25T09:43:18;8.03;;;2.00;;
9974;SDS011;5028;50.974;4.968;2023-04-25T09:45:50;3.10;;;1.80;;
9974;SDS011;5028;50.974;4.968;2023-04-25T09:48:24;7.00;;;2.43;;
9974;SDS011;5028;50.974;4.968;2023-04-25T09:51:04;5.37;;;2.60;;
9974;SDS011;5028;50.974;4.968;2023-04-25T09:53:33;5.23;;;2.23;;
9974;SDS011;5028;50.974;4.968;2023-04-25T09:56:04;5.30;;;2.33;;
9974;SDS011;5028;50.974;4.968;2023-04-25T09:58:33;8.00;;;2.47;;
9974;SDS011;5028;50.974;4.968;2023-04-25T10:01:05;4.97;;;1.90;;
9974;SDS011;5028;50.974;4.968;2023-04-25T10:03:36;4.90;;;1.90;;
9974;SDS011;5028;50.974;4.968;2023-04-25T10:06:07;5.30;;;2.17;;
9974;SDS011;5028;50.974;4.968;2023-04-25T10:08:37;7.30;;;2.13;;
9974;SDS011;5028;50.974;4.968;2023-04-25T10:11:08;5.77;;;1.90;;
9974;SDS011;5028;50.974;4.968;2023-04-25T10:13:37;4.43;;;2.07;;
9974;SDS011;5028;50.974;4.968;2023-04-25T10:16:09;5.23;;;2.03;;
9974;SDS011;5028;50.974;4.968;2023-04-25T10:18:38;6.83;;;1.67;;
9974;SDS011;5028;50.974;4.968;2023-04-25T10:21:07;4.97;;;1.83;;
9974;SDS011;5028;50.974;4.968;2023-04-25T10:23:35;5.17;;;1.70;;
9974;SDS011;5028;50.974;4.968;2023-04-25T10:26:05;4.33;;;1.87;;
9974;SDS011;5028;50.974;4.968;2023-04-25T10:28:54;4.27;;;1.57;;
9974;SDS011;5028;50.974;4.968;2023-04-25T10:31:26;5.83;;;2.00;;
9974;SDS011;5028;50.974;4.968;2023-04-25T10:33:57;4.47;;;1.83;;
9974;SDS011;5028;50.974;4.968;2023-04-25T10:36:28;4.60;;;1.47;;
9974;SDS011;5028;50.974;4.968;2023-04-25T10:39:03;4.77;;;1.27;;
9974;SDS011;5028;50.974;4.968;2023-04-25T10:41:52;3.90;;;1.67;;
9974;SDS011;5028;50.974;4.968;2023-04-25T10:44:23;3.50;;;1.50;;
9974;SDS011;5028;50.974;4.968;2023-04-25T10:46:56;4.47;;;1.63;;
9974;SDS011;5028;50.974;4.968;2023-04-25T10:49:30;2.60;;;1.30;;
9974;SDS011;5028;50.974;4.968;2023-04-25T10:52:16;3.00;;;1.50;;
9974;SDS011;5028;50.974;4.968;2023-04-25T10:54:47;2.83;;;1.30;;
9974;SDS011;5028;50.974;4.968;2023-04-25T11:00:11;3.23;;;1.53;;
9974;SDS011;5028;50.974;4.968;2023-04-25T11:02:44;5.37;;;1.67;;
9974;SDS011;5028;50.974;4.968;2023-04-25T11:05:21;2.60;;;1.40;;
9974;SDS011;5028;50.974;4.968;2023-04-25T11:08:00;4.97;;;1.50;;
9974;SDS011;5028;50.974;4.968;2023-04-25T11:10:34;3.20;;;1.50;;
9974;SDS011;5028;50.974;4.968;2023-04-25T11:13:03;5.80;;;1.50;;
9974;SDS011;5028;50.974;4.968;2023-04-25T11:15:32;5.47;;;1.57;;
9974;SDS011;5028;50.974;4.968;2023-04-25T11:18:02;5.53;;;1.60;;
9974;SDS011;5028;50.974;4.968;2023-04-25T11:20:31;4.87;;;1.40;;
9974;SDS011;5028;50.974;4.968;2023-04-25T11:23:00;4.13;;;1.90;;
9974;SDS011;5028;50.974;4.968;2023-04-25T11:25:29;4.77;;;1.70;;
9974;SDS011;5028;50.974;4.968;2023-04-25T11:28:00;3.00;;;1.50;;
9974;SDS011;5028;50.974;4.968;2023-04-25T11:30:29;7.20;;;2.10;;
9974;SDS011;5028;50.974;4.968;2023-04-25T11:32:58;6.00;;;1.80;;
9974;SDS011;5028;50.974;4.968;2023-04-25T11:35:28;3.87;;;1.80;;
9974;SDS011;5028;50.974;4.968;2023-04-25T11:37:56;3.80;;;1.67;;
9974;SDS011;5028;50.974;4.968;2023-04-25T11:40:25;3.73;;;1.53;;
9974;SDS011;5028;50.974;4.968;2023-04-25T11:42:54;5.80;;;2.00;;
9974;SDS011;5028;50.974;4.968;2023-04-25T11:45:23;5.20;;;1.90;;
9974;SDS011;5028;50.974;4.968;2023-04-25T11:47:52;4.93;;;2.13;;
9974;SDS011;5028;50.974;4.968;2023-04-25T11:50:20;5.47;;;2.20;;
9974;SDS011;5028;50.974;4.968;2023-04-25T11:52:51;4.90;;;1.80;;
9974;SDS011;5028;50.974;4.968;2023-04-25T11:55:24;3.07;;;1.70;;
9974;SDS011;5028;50.974;4.968;2023-04-25T11:57:53;4.50;;;2.03;;
9974;SDS011;5028;50.974;4.968;2023-04-25T12:00:22;3.43;;;1.93;;
9974;SDS011;5028;50.974;4.968;2023-04-25T12:02:53;3.87;;;2.00;;
9974;SDS011;5028;50.974;4.968;2023-04-25T12:05:25;4.63;;;2.00;;
9974;SDS011;5028;50.974;4.968;2023-04-25T12:08:10;7.00;;;2.03;;
9974;SDS011;5028;50.974;4.968;2023-04-25T12:10:40;3.80;;;1.90;;
9974;SDS011;5028;50.974;4.968;2023-04-25T12:13:20;4.47;;;1.83;;
9974;SDS011;5028;50.974;4.968;2023-04-25T12:15:49;5.03;;;2.00;;
9974;SDS011;5028;50.974;4.968;2023-04-25T12:18:19;4.47;;;1.90;;
9974;SDS011;5028;50.974;4.968;2023-04-25T12:20:49;5.73;;;1.90;;
9974;SDS011;5028;50.974;4.968;2023-04-25T12:23:25;3.83;;;1.87;;
9974;SDS011;5028;50.974;4.968;2023-04-25T12:25:55;3.67;;;1.80;;
9974;SDS011;5028;50.974;4.968;2023-04-25T12:28:24;5.53;;;1.97;;
9974;SDS011;5028;50.974;4.968;2023-04-25T12:30:56;5.30;;;1.90;;
9974;SDS011;5028;50.974;4.968;2023-04-25T12:33:27;7.13;;;2.10;;
9974;SDS011;5028;50.974;4.968;2023-04-25T12:35:57;6.33;;;1.70;;
9974;SDS011;5028;50.974;4.968;2023-04-25T12:38:35;4.30;;;1.83;;
9974;SDS011;5028;50.974;4.968;2023-04-25T12:41:06;5.03;;;2.10;;
9974;SDS011;5028;50.974;4.968;2023-04-25T12:43:35;5.83;;;1.93;;
9974;SDS011;5028;50.974;4.968;2023-04-25T12:46:04;4.40;;;1.50;;
9974;SDS011;5028;50.974;4.968;2023-04-25T12:48:32;3.30;;;1.60;;
9974;SDS011;5028;50.974;4.968;2023-04-25T12:51:01;3.23;;;1.40;;
9974;SDS011;5028;50.974;4.968;2023-04-25T12:53:30;2.87;;;1.60;;
9974;SDS011;5028;50.974;4.968;2023-04-25T12:56:02;5.23;;;1.93;;
9974;SDS011;5028;50.974;4.968;2023-04-25T12:58:31;3.77;;;1.50;;
9974;SDS011;5028;50.974;4.968;2023-04-25T13:01:00;6.30;;;1.60;;
9974;SDS011;5028;50.974;4.968;2023-04-25T13:03:31;3.93;;;1.67;;
9974;SDS011;5028;50.974;4.968;2023-04-25T13:06:01;7.27;;;1.90;;
9974;SDS011;5028;50.974;4.968;2023-04-25T13:08:30;2.30;;;1.27;;
9974;SDS011;5028;50.974;4.968;2023-04-25T13:10:59;4.37;;;1.47;;
9974;SDS011;5028;50.974;4.968;2023-04-25T13:13:30;2.83;;;1.57;;
9974;SDS011;5028;50.974;4.968;2023-04-25T13:15:58;3.30;;;1.40;;
9974;SDS011;5028;50.974;4.968;2023-04-25T13:18:27;3.20;;;1.50;;
9974;SDS011;5028;50.974;4.968;2023-04-25T13:20:57;3.97;;;1.50;;
9974;SDS011;5028;50.974;4.968;2023-04-25T13:23:26;9.57;;;1.53;;
9974;SDS011;5028;50.974;4.968;2023-04-25T13:25:56;3.93;;;1.70;;
9974;SDS011;5028;50.974;4.968;2023-04-25T13:28:25;3.83;;;1.20;;
9974;SDS011;5028;50.974;4.968;2023-04-25T13:30:55;4.00;;;1.43;;
9974;SDS011;5028;50.974;4.968;2023-04-25T13:33:24;3.60;;;1.37;;
9974;SDS011;5028;50.974;4.968;2023-04-25T13:35:53;4.63;;;1.27;;
9974;SDS011;5028;50.974;4.968;2023-04-25T13:38:23;4.30;;;1.13;;
9974;SDS011;5028;50.974;4.968;2023-04-25T13:40:53;3.93;;;1.50;;
9974;SDS011;5028;50.974;4.968;2023-04-25T13:43:22;2.50;;;1.20;;
9974;SDS011;5028;50.974;4.968;2023-04-25T13:45:51;4.30;;;1.43;;
9974;SDS011;5028;50.974;4.968;2023-04-25T13:48:21;2.43;;;1.10;;
9974;SDS011;5028;50.974;4.968;2023-04-25T13:50:49;2.93;;;1.27;;
9974;SDS011;5028;50.974;4.968;2023-04-25T13:53:18;1.73;;;1.03;;
9974;SDS011;5028;50.974;4.968;2023-04-25T13:55:47;1.70;;;1.10;;
9974;SDS011;5028;50.974;4.968;2023-04-25T13:58:16;1.80;;;1.00;;
9974;SDS011;5028;50.974;4.968;2023-04-25T14:00:46;2.50;;;1.40;;
9974;SDS011;5028;50.974;4.968;2023-04-25T14:03:15;3.50;;;1.30;;
9974;SDS011;5028;50.974;4.968;2023-04-25T14:05:45;2.37;;;0.90;;
9974;SDS011;5028;50.974;4.968;2023-04-25T14:08:14;3.13;;;1.20;;
9974;SDS011;5028;50.974;4.968;2023-04-25T14:10:42;2.20;;;1.00;;
9974;SDS011;5028;50.974;4.968;2023-04-25T14:13:11;2.53;;;1.30;;
9974;SDS011;5028;50.974;4.968;2023-04-25T14:15:39;2.57;;;1.23;;
9974;SDS011;5028;50.974;4.968;2023-04-25T14:18:08;3.13;;;1.70;;
9974;SDS011;5028;50.974;4.968;2023-04-25T14:20:36;3.50;;;1.10;;
9974;SDS011;5028;50.974;4.968;2023-04-25T14:23:07;4.60;;;1.30;;
9974;SDS011;5028;50.974;4.968;2023-04-25T14:25:36;5.40;;;1.30;;
9974;SDS011;5028;50.974;4.968;2023-04-25T14:28:04;1.97;;;1.10;;
9974;SDS011;5028;50.974;4.968;2023-04-25T14:30:33;3.00;;;1.40;;
9974;SDS011;5028;50.974;4.968;2023-04-25T14:33:02;5.10;;;1.50;;
9974;SDS011;5028;50.974;4.968;2023-04-25T14:35:31;4.73;;;1.57;;
9974;SDS011;5028;50.974;4.968;2023-04-25T14:38:00;1.50;;;1.30;;
9974;SDS011;5028;50.974;4.968;2023-04-25T14:40:31;3.63;;;1.50;;
9974;SDS011;5028;50.974;4.968;2023-04-25T14:43:00;2.50;;;1.53;;
9974;SDS011;5028;50.974;4.968;2023-04-25T14:45:28;2.00;;;1.50;;
9974;SDS011;5028;50.974;4.968;2023-04-25T14:47:56;4.00;;;1.47;;
9974;SDS011;5028;50.974;4.968;2023-04-25T14:50:25;4.40;;;1.73;;
9974;SDS011;5028;50.974;4.968;2023-04-25T14:52:55;3.77;;;1.23;;
9974;SDS011;5028;50.974;4.968;2023-04-25T14:55:25;3.90;;;1.70;;
9974;SDS011;5028;50.974;4.968;2023-04-25T14:57:56;4.37;;;1.63;;
9974;SDS011;5028;50.974;4.968;2023-04-25T15:00:24;3.80;;;1.53;;
9974;SDS011;5028;50.974;4.968;2023-04-25T15:02:53;4.03;;;1.30;;
9974;SDS011;5028;50.974;4.968;2023-04-25T15:05:23;3.30;;;1.33;;
9974;SDS011;5028;50.974;4.968;2023-04-25T15:07:52;3.33;;;1.23;;
9974;SDS011;5028;50.974;4.968;2023-04-25T15:10:21;2.20;;;1.20;;
9974;SDS011;5028;50.974;4.968;2023-04-25T15:12:50;3.27;;;1.30;;
9974;SDS011;5028;50.974;4.968;2023-04-25T15:15:21;3.87;;;1.33;;
9974;SDS011;5028;50.974;4.968;2023-04-25T15:17:52;5.07;;;1.43;;
9974;SDS011;5028;50.974;4.968;2023-04-25T15:20:24;5.27;;;1.50;;
9974;SDS011;5028;50.974;4.968;2023-04-25T15:22:54;4.80;;;1.50;;
9974;SDS011;5028;50.974;4.968;2023-04-25T15:25:22;4.30;;;1.00;;
9974;SDS011;5028;50.974;4.968;2023-04-25T15:27:51;4.43;;;1.40;;